Time;durP1;ratioP1;P1;durP2;ratioP2;P2;SDS_P1;SDS_P2;PMS_P1;PMS_P2;Temp;Humidity;BMP_temperature;BMP_pressure;BME280_temperature;BME280_humidity;BME280_pressure;Samples;Min_cycle;Max_cycle;Signal;HPM_P1;HPM_P2
2023/02/12 00:01:21;;;;;;;27.80;17.63;;;5.20;99.90;;;;;;5011047;28;20445;-72
2023/02/12 00:03:47;;;;;;;26.70;17.07;;;5.10;99.90;;;;;;5008559;28;20425;-72
2023/02/12 00:06:13;;;;;;;31.73;17.60;;;5.20;99.90;;;;;;5011319;28;20416;-73
2023/02/12 00:08:39;;;;;;;25.87;17.20;;;5.20;99.90;;;;;;5011432;28;20190;-72
2023/02/12 00:11:15;;;;;;;27.40;16.77;;;5.20;99.90;;;;;;4993181;28;20209;-74
2023/02/12 00:13:41;;;;;;;28.37;16.60;;;5.20;99.90;;;;;;5011044;28;20574;-71
2023/02/12 00:16:09;;;;;;;24.33;16.47;;;5.20;99.90;;;;;;5010933;28;20422;-73
2023/02/12 00:18:35;;;;;;;29.23;18.77;;;5.20;99.90;;;;;;5010731;28;21027;-70
2023/02/12 00:21:02;;;;;;;26.20;16.93;;;5.20;99.90;;;;;;5003428;28;20465;-72
2023/02/12 00:23:28;;;;;;;25.17;17.03;;;5.20;99.90;;;;;;5011170;28;20513;-72
2023/02/12 00:25:53;;;;;;;28.70;16.03;;;5.20;99.90;;;;;;5010189;28;21006;-72
2023/02/12 00:28:19;;;;;;;25.00;16.50;;;5.20;99.90;;;;;;5011229;28;20192;-72
2023/02/12 00:30:44;;;;;;;25.03;16.37;;;5.20;99.90;;;;;;5010990;28;20236;-72
2023/02/12 00:33:10;;;;;;;25.43;16.40;;;5.20;99.90;;;;;;5010001;28;20213;-72
2023/02/12 00:35:35;;;;;;;20.77;15.20;;;5.20;99.90;;;;;;5010832;28;20178;-73
2023/02/12 00:38:01;;;;;;;30.10;16.30;;;5.20;99.90;;;;;;5013283;28;20212;-71
2023/02/12 00:40:27;;;;;;;26.83;16.83;;;5.20;99.90;;;;;;5013911;28;20542;-72
2023/02/12 00:42:52;;;;;;;26.63;17.00;;;5.20;99.90;;;;;;5014408;28;20196;-74
2023/02/12 00:45:18;;;;;;;31.93;16.63;;;5.20;99.90;;;;;;5013884;28;20180;-72
2023/02/12 00:47:43;;;;;;;24.50;16.20;;;5.20;99.90;;;;;;5014593;28;20252;-72
2023/02/12 00:50:10;;;;;;;24.20;15.80;;;5.10;99.90;;;;;;5014949;28;20280;-72
2023/02/12 00:52:35;;;;;;;29.17;17.80;;;5.10;99.90;;;;;;5014154;28;20203;-72
2023/02/12 00:55:01;;;;;;;26.67;16.90;;;5.10;99.90;;;;;;5013630;28;21005;-72
2023/02/12 00:57:26;;;;;;;24.67;15.23;;;5.10;99.90;;;;;;5014022;28;20197;-73
2023/02/12 00:59:52;;;;;;;31.83;16.60;;;5.10;99.90;;;;;;5013482;28;20552;-71
2023/02/12 01:02:17;;;;;;;31.03;17.07;;;5.10;99.90;;;;;;5013787;28;20285;-73
2023/02/12 01:04:43;;;;;;;30.00;17.30;;;5.10;99.90;;;;;;5013578;28;20665;-73
2023/02/12 01:07:09;;;;;;;24.20;17.13;;;5.10;99.90;;;;;;5013067;28;20672;-72
2023/02/12 01:09:35;;;;;;;27.90;17.03;;;5.20;99.90;;;;;;5011932;28;20456;-71
2023/02/12 01:12:01;;;;;;;24.40;17.40;;;5.10;99.90;;;;;;5013590;28;20546;-71
2023/02/12 01:14:26;;;;;;;31.10;18.13;;;5.10;99.90;;;;;;5013423;28;20220;-72
2023/02/12 01:16:52;;;;;;;29.53;17.33;;;5.10;99.90;;;;;;5013982;28;20419;-72
2023/02/12 01:19:17;;;;;;;26.50;18.13;;;5.10;99.90;;;;;;5014174;28;20179;-73
2023/02/12 01:21:43;;;;;;;28.67;17.20;;;5.10;99.90;;;;;;5013865;28;20233;-73
2023/02/12 01:24:09;;;;;;;30.47;18.90;;;5.10;99.90;;;;;;5014120;28;20190;-74
2023/02/12 01:26:34;;;;;;;29.70;18.20;;;5.10;99.90;;;;;;5013940;28;20209;-72
2023/02/12 01:29:03;;;;;;;30.73;17.97;;;5.10;99.90;;;;;;5014070;28;20186;-72
2023/02/12 01:31:34;;;;;;;31.63;17.30;;;5.10;99.90;;;;;;5013726;28;20728;-72
2023/02/12 01:34:00;;;;;;;25.77;17.20;;;5.10;99.90;;;;;;5013732;28;21101;-72
2023/02/12 01:36:27;;;;;;;27.40;17.10;;;5.10;99.90;;;;;;5013785;28;20491;-72
2023/02/12 01:38:54;;;;;;;28.00;17.40;;;5.10;99.90;;;;;;5013729;28;20480;-73
2023/02/12 01:41:22;;;;;;;27.20;18.00;;;5.10;99.90;;;;;;5013675;28;20440;-72
2023/02/12 01:44:10;;;;;;;30.63;17.47;;;5.10;99.90;;;;;;5013524;28;20430;-72
2023/02/12 01:46:36;;;;;;;28.80;17.90;;;5.10;99.90;;;;;;5013624;28;20459;-72
2023/02/12 01:49:05;;;;;;;29.67;18.33;;;5.20;99.90;;;;;;5012533;28;21014;-72
2023/02/12 01:51:32;;;;;;;28.20;17.07;;;5.10;99.90;;;;;;5013470;28;20212;-72
2023/02/12 01:54:03;;;;;;;32.13;20.00;;;5.10;99.90;;;;;;5013372;28;21012;-72
2023/02/12 01:56:30;;;;;;;29.37;18.43;;;5.10;99.90;;;;;;5013495;28;20832;-72
2023/02/12 01:58:56;;;;;;;39.77;20.70;;;5.10;99.90;;;;;;5013428;28;20418;-72
2023/02/12 03:32:14;;;;;;;26.43;17.20;;;5.10;99.90;;;;;;5438792;22;20506;-70
2023/02/12 03:34:40;;;;;;;26.30;17.10;;;5.10;99.90;;;;;;5009893;28;20482;-69
2023/02/12 03:37:31;;;;;;;30.77;18.07;;;5.10;99.90;;;;;;5011170;28;20433;-72
2023/02/12 03:40:08;;;;;;;26.60;16.00;;;5.10;99.90;;;;;;5011810;28;20280;-71
2023/02/12 03:42:46;;;;;;;26.37;17.70;;;5.00;99.90;;;;;;4975580;28;20450;-72
2023/02/12 03:45:26;;;;;;;24.27;15.87;;;5.00;99.90;;;;;;5011275;28;20500;-72
2023/02/12 03:48:39;;;;;;;35.13;16.70;;;4.90;99.90;;;;;;4994156;28;20519;-72
2023/02/12 03:51:16;;;;;;;27.10;16.87;;;4.90;99.90;;;;;;4991267;28;20452;-71
2023/02/12 03:53:43;;;;;;;31.20;19.60;;;4.90;99.90;;;;;;4991826;28;21070;-72
2023/02/12 03:56:14;;;;;;;28.63;17.20;;;4.90;99.90;;;;;;4991385;28;21008;-72
2023/02/12 03:58:41;;;;;;;29.73;20.50;;;4.90;99.90;;;;;;4992015;28;20435;-72
2023/02/12 04:01:08;;;;;;;30.53;17.50;;;4.90;99.90;;;;;;4994418;28;20463;-73
2023/02/12 04:03:34;;;;;;;30.40;18.53;;;5.00;99.90;;;;;;4997421;28;20446;-72
2023/02/12 04:05:59;;;;;;;24.80;18.07;;;5.00;99.90;;;;;;4999618;28;20443;-72
2023/02/12 04:08:26;;;;;;;30.50;18.80;;;5.00;99.90;;;;;;4997190;28;20845;-72
2023/02/12 04:11:17;;;;;;;26.80;17.70;;;5.00;99.90;;;;;;5002636;28;20225;-72
2023/02/12 04:13:58;;;;;;;33.43;18.03;;;5.00;99.90;;;;;;5003428;28;20478;-70
2023/02/12 04:16:40;;;;;;;30.47;19.03;;;5.00;99.90;;;;;;5001620;28;20991;-73
2023/02/12 04:19:09;;;;;;;28.07;18.17;;;5.00;99.90;;;;;;4999801;28;20785;-73
2023/02/12 04:21:42;;;;;;;28.53;18.70;;;5.00;99.90;;;;;;5001660;28;20451;-72
2023/02/12 04:24:31;;;;;;;27.73;18.07;;;4.90;99.90;;;;;;4996039;28;20868;-71
2023/02/12 04:27:02;;;;;;;33.60;19.50;;;4.90;99.90;;;;;;4996139;28;20480;-72
2023/02/12 04:29:32;;;;;;;32.40;17.90;;;4.90;99.90;;;;;;4996709;28;20503;-72
2023/02/12 04:32:23;;;;;;;30.13;17.60;;;4.90;99.90;;;;;;5002980;28;20960;-72
2023/02/12 04:35:01;;;;;;;31.87;19.80;;;4.90;99.90;;;;;;5002493;28;20992;-72
2023/02/12 04:37:39;;;;;;;33.67;21.60;;;5.00;99.90;;;;;;5002961;28;20438;-73
2023/02/12 04:40:08;;;;;;;35.93;22.07;;;5.10;99.90;;;;;;4995341;28;20419;-72
2023/02/12 04:42:48;;;;;;;37.33;23.63;;;5.10;99.90;;;;;;4995310;28;20497;-72
2023/02/12 04:45:19;;;;;;;39.33;25.80;;;5.10;99.90;;;;;;4994973;28;20448;-72
2023/02/12 04:47:45;;;;;;;44.40;27.90;;;5.20;99.90;;;;;;4995184;28;20430;-73
2023/02/12 04:50:11;;;;;;;45.73;28.63;;;5.30;99.90;;;;;;4994915;28;21204;-71
2023/02/12 04:52:37;;;;;;;44.97;28.80;;;5.30;99.90;;;;;;4994925;28;20226;-71
2023/02/12 04:55:02;;;;;;;48.83;29.50;;;5.30;99.90;;;;;;4994932;28;20680;-72
2023/02/12 04:57:28;;;;;;;43.47;30.70;;;5.30;99.90;;;;;;5002926;28;20198;-72
2023/02/12 04:59:53;;;;;;;51.33;30.73;;;5.30;99.90;;;;;;5003068;28;20185;-73
2023/02/12 05:02:19;;;;;;;48.47;30.00;;;5.40;99.90;;;;;;4994821;28;20285;-72
2023/02/12 05:04:44;;;;;;;51.93;31.37;;;5.40;99.90;;;;;;4977350;28;20284;-72
2023/02/12 05:07:10;;;;;;;47.17;31.00;;;5.30;99.90;;;;;;5005217;28;20260;-73
2023/02/12 05:09:36;;;;;;;52.00;30.93;;;5.40;99.90;;;;;;5000183;28;20246;-70
2023/02/12 05:12:01;;;;;;;44.97;30.10;;;5.40;99.90;;;;;;4994566;28;20456;-71
2023/02/12 05:14:27;;;;;;;43.50;29.70;;;5.30;99.90;;;;;;4994635;28;20219;-72
2023/02/12 05:16:53;;;;;;;51.13;29.93;;;5.40;99.90;;;;;;4985096;28;20273;-71
2023/02/12 05:19:18;;;;;;;52.87;30.53;;;5.40;99.90;;;;;;5002552;28;20640;-72
2023/02/12 05:21:44;;;;;;;46.43;30.20;;;5.40;99.90;;;;;;5001111;28;20572;-72
2023/02/12 05:24:09;;;;;;;51.60;32.97;;;5.30;99.90;;;;;;4995212;28;20285;-72
2023/02/12 05:26:35;;;;;;;49.87;31.33;;;5.30;99.90;;;;;;4994267;28;20239;-72
2023/02/12 05:29:02;;;;;;;51.67;31.90;;;5.30;99.90;;;;;;4994642;28;20278;-73
2023/02/12 05:31:27;;;;;;;46.87;29.57;;;5.30;99.90;;;;;;4999007;28;20463;-73
2023/02/12 05:33:53;;;;;;;50.50;31.00;;;5.40;99.90;;;;;;4997598;28;20483;-73
2023/02/12 05:36:22;;;;;;;53.17;32.80;;;5.40;99.90;;;;;;4994029;28;20237;-70
2023/02/12 05:38:48;;;;;;;45.27;29.20;;;5.30;99.90;;;;;;5017364;28;20227;-71
2023/02/12 05:41:17;;;;;;;43.97;30.67;;;5.30;99.90;;;;;;5011617;28;20600;-71
2023/02/12 05:43:43;;;;;;;44.83;29.60;;;5.30;99.90;;;;;;5001052;28;20435;-71
2023/02/12 05:46:09;;;;;;;47.87;31.33;;;5.20;99.90;;;;;;4995478;28;20428;-72
2023/02/12 05:48:36;;;;;;;50.07;30.63;;;5.20;99.90;;;;;;4994487;28;20430;-72
2023/02/12 05:51:23;;;;;;;45.40;31.63;;;5.20;99.90;;;;;;5002083;28;20457;-72
2023/02/12 05:53:51;;;;;;;48.30;29.73;;;5.20;99.90;;;;;;5001620;28;20472;-72
2023/02/12 05:56:23;;;;;;;48.43;27.67;;;5.20;99.90;;;;;;5001904;28;20511;-72
2023/02/12 05:58:55;;;;;;;46.67;28.80;;;5.20;99.90;;;;;;5009579;28;20431;-72
2023/02/12 06:01:26;;;;;;;45.47;28.60;;;5.20;99.90;;;;;;5005293;28;20539;-72
2023/02/12 06:03:52;;;;;;;46.37;28.70;;;5.20;99.90;;;;;;4997689;28;20813;-72
2023/02/12 06:06:17;;;;;;;47.57;28.40;;;5.10;99.90;;;;;;4993514;28;20432;-70
2023/02/12 06:08:43;;;;;;;43.87;28.13;;;5.10;99.90;;;;;;4994015;28;20194;-72
2023/02/12 06:11:13;;;;;;;43.63;28.37;;;5.10;99.90;;;;;;4993615;28;20216;-72
2023/02/12 06:13:38;;;;;;;42.17;27.97;;;5.10;99.90;;;;;;4993800;28;20238;-73
2023/02/12 06:16:04;;;;;;;48.63;28.40;;;5.20;99.90;;;;;;4993812;28;20487;-73
2023/02/12 06:18:30;;;;;;;45.43;29.30;;;5.10;99.90;;;;;;5002288;28;20229;-72
2023/02/12 06:20:56;;;;;;;48.20;28.50;;;5.10;99.90;;;;;;4993254;28;20963;-71
2023/02/12 06:23:23;;;;;;;43.83;28.03;;;5.20;99.90;;;;;;4993331;28;20197;-71
2023/02/12 06:25:49;;;;;;;45.83;29.53;;;5.20;99.90;;;;;;5008338;28;20467;-71
2023/02/12 06:28:15;;;;;;;46.17;30.93;;;5.20;99.90;;;;;;5002320;28;20437;-71
2023/02/12 06:30:41;;;;;;;43.17;29.10;;;5.30;99.90;;;;;;4975830;28;20457;-72
2023/02/12 06:33:06;;;;;;;44.00;29.30;;;5.30;99.90;;;;;;5001381;28;20805;-71
2023/02/12 06:35:34;;;;;;;45.60;27.60;;;5.40;99.90;;;;;;4974619;28;20199;-71
2023/02/12 06:38:00;;;;;;;40.90;28.30;;;5.40;99.90;;;;;;4992525;28;20195;-70
2023/02/12 06:40:25;;;;;;;41.03;29.10;;;5.40;99.90;;;;;;4992705;28;20509;-71
2023/02/12 06:42:51;;;;;;;43.13;27.90;;;5.50;99.90;;;;;;4993156;28;20193;-71
2023/02/12 06:45:16;;;;;;;46.07;28.57;;;5.50;99.90;;;;;;5000726;28;20196;-72
2023/02/12 06:47:42;;;;;;;42.80;28.90;;;5.50;99.90;;;;;;4992951;28;20352;-72
2023/02/12 06:50:08;;;;;;;47.30;29.53;;;5.50;99.90;;;;;;4994230;28;20564;-71
2023/02/12 06:52:33;;;;;;;45.27;29.07;;;5.50;99.90;;;;;;4999458;28;20240;-71
2023/02/12 06:54:58;;;;;;;49.43;32.03;;;5.50;99.90;;;;;;5000515;28;20223;-70
2023/02/12 06:57:24;;;;;;;43.70;29.10;;;5.50;99.90;;;;;;5000663;28;20193;-71
2023/02/12 06:59:49;;;;;;;46.50;28.77;;;5.50;99.90;;;;;;5001019;28;20215;-72
2023/02/12 07:02:15;;;;;;;47.50;29.60;;;5.50;99.90;;;;;;4992376;28;20210;-72
2023/02/12 07:04:40;;;;;;;49.03;31.00;;;5.50;99.90;;;;;;4991440;28;20247;-72
2023/02/12 07:07:06;;;;;;;45.27;29.33;;;5.50;99.90;;;;;;5000396;28;20259;-72
2023/02/12 07:09:32;;;;;;;47.97;29.17;;;5.60;99.90;;;;;;4992705;28;20197;-72
2023/02/12 07:11:58;;;;;;;48.07;31.30;;;5.60;99.90;;;;;;4992451;28;20223;-71
2023/02/12 07:14:24;;;;;;;51.07;29.30;;;5.60;99.90;;;;;;4982545;28;20247;-72
2023/02/12 07:16:49;;;;;;;46.40;29.00;;;5.70;99.90;;;;;;4992273;28;20469;-73
2023/02/12 07:19:15;;;;;;;50.87;31.50;;;5.70;99.90;;;;;;4974618;28;20545;-71
2023/02/12 07:21:41;;;;;;;51.40;30.17;;;5.70;99.90;;;;;;4974727;28;20208;-72
2023/02/12 07:24:10;;;;;;;47.43;30.00;;;5.70;99.90;;;;;;4992152;28;20228;-71
2023/02/12 07:26:37;;;;;;;45.50;29.50;;;5.70;99.90;;;;;;4974704;28;20443;-73
2023/02/12 07:29:03;;;;;;;48.03;29.37;;;5.70;99.90;;;;;;5000388;28;20482;-70
2023/02/12 07:31:29;;;;;;;43.23;29.97;;;5.80;99.90;;;;;;4995989;28;20592;-72
2023/02/12 07:33:56;;;;;;;49.13;30.50;;;5.80;99.90;;;;;;4996252;28;20495;-71
2023/02/12 07:36:23;;;;;;;41.83;28.87;;;5.90;99.90;;;;;;5000202;28;20196;-71
2023/02/12 07:38:48;;;;;;;48.33;32.13;;;6.10;99.90;;;;;;5000602;28;20446;-72
2023/02/12 07:41:16;;;;;;;47.10;29.03;;;6.10;99.90;;;;;;5002124;28;20457;-71
2023/02/12 07:43:43;;;;;;;48.40;30.77;;;6.20;99.90;;;;;;5003810;28;20270;-72
2023/02/12 07:46:11;;;;;;;43.83;30.70;;;6.30;99.90;;;;;;4993949;28;20433;-72
2023/02/12 07:48:37;;;;;;;45.37;30.60;;;6.30;99.90;;;;;;4992515;28;20428;-72
2023/02/12 07:51:07;;;;;;;50.10;33.37;;;6.30;99.90;;;;;;5000465;28;20794;-70
2023/02/12 07:53:33;;;;;;;48.83;31.10;;;6.30;99.90;;;;;;5000462;28;20210;-71
2023/02/12 07:56:15;;;;;;;42.50;27.70;;;6.30;99.90;;;;;;4991614;28;20488;-72
2023/02/12 07:58:43;;;;;;;50.83;31.77;;;6.40;99.90;;;;;;4991896;28;20434;-72
2023/02/12 08:01:29;;;;;;;42.03;27.90;;;6.40;99.90;;;;;;4991671;28;21036;-71
2023/02/12 08:04:04;;;;;;;49.03;31.00;;;6.40;99.90;;;;;;4991977;28;20436;-70
2023/02/12 08:06:32;;;;;;;42.70;29.50;;;6.30;99.90;;;;;;4991700;28;20439;-71
2023/02/12 08:09:00;;;;;;;48.30;31.00;;;6.30;99.90;;;;;;4991995;28;20797;-72
2023/02/12 08:11:27;;;;;;;49.33;29.30;;;6.30;99.90;;;;;;4991563;28;21038;-71
2023/02/12 08:13:53;;;;;;;45.83;31.70;;;6.40;99.90;;;;;;4991602;28;20475;-70
2023/02/12 08:16:22;;;;;;;52.67;32.93;;;6.30;99.90;;;;;;4991353;28;20464;-71
2023/02/12 08:18:48;;;;;;;48.30;31.43;;;6.40;99.90;;;;;;4980536;28;20660;-70
2023/02/12 08:21:22;;;;;;;48.73;29.90;;;6.40;99.90;;;;;;4993439;28;20803;-71
2023/02/12 08:23:49;;;;;;;52.33;30.37;;;6.40;99.90;;;;;;4999876;28;20444;-72
2023/02/12 08:26:16;;;;;;;49.70;31.47;;;6.40;99.90;;;;;;4975606;28;20478;-70
2023/02/12 08:28:45;;;;;;;56.43;33.40;;;6.30;99.90;;;;;;4997981;28;20476;-70
2023/02/12 08:31:19;;;;;;;60.10;34.17;;;6.40;99.90;;;;;;4998179;28;20467;-72
2023/02/12 08:33:46;;;;;;;50.50;31.10;;;6.50;99.90;;;;;;4998758;28;20484;-70
2023/02/12 08:36:15;;;;;;;52.20;31.17;;;6.50;99.90;;;;;;4991746;28;20498;-72
2023/02/12 08:38:43;;;;;;;57.63;33.47;;;6.50;99.90;;;;;;4995765;28;20461;-72
2023/02/12 08:41:21;;;;;;;50.53;32.70;;;6.60;99.90;;;;;;5000229;28;20816;-72
2023/02/12 08:43:48;;;;;;;53.07;34.67;;;6.70;99.90;;;;;;4996548;28;20473;-72
2023/02/12 08:46:19;;;;;;;48.13;31.97;;;6.70;99.90;;;;;;4997244;28;20455;-72
2023/02/12 08:48:45;;;;;;;50.80;33.03;;;6.80;99.90;;;;;;4990583;28;20890;-72
2023/02/12 08:51:13;;;;;;;51.23;32.77;;;6.80;99.90;;;;;;4990143;28;20486;-72
2023/02/12 08:53:40;;;;;;;51.60;33.63;;;6.80;99.90;;;;;;4990636;28;20234;-72
2023/02/12 08:56:07;;;;;;;54.77;33.10;;;6.90;99.90;;;;;;4990803;28;21041;-70
2023/02/12 08:58:34;;;;;;;63.00;32.73;;;7.00;99.90;;;;;;4992698;28;20456;-70
2023/02/12 09:01:00;;;;;;;57.70;34.00;;;7.00;99.90;;;;;;4994176;28;20483;-71
2023/02/12 09:03:26;;;;;;;49.37;33.27;;;7.00;99.90;;;;;;4994118;28;21049;-71
2023/02/12 09:05:52;;;;;;;51.60;29.87;;;7.10;99.90;;;;;;4999823;28;20468;-72
2023/02/12 09:08:17;;;;;;;50.40;32.37;;;7.10;99.90;;;;;;5003747;28;20831;-71
2023/02/12 09:10:43;;;;;;;46.63;32.23;;;7.20;99.90;;;;;;4995786;28;20228;-72
2023/02/12 09:13:11;;;;;;;50.03;32.43;;;7.20;99.90;;;;;;4993614;28;20328;-72
2023/02/12 09:15:43;;;;;;;48.23;31.30;;;7.20;99.90;;;;;;4997264;28;20836;-72
2023/02/12 09:18:10;;;;;;;53.97;34.40;;;7.20;99.90;;;;;;4996981;28;20561;-72
2023/02/12 09:20:41;;;;;;;52.67;34.20;;;7.30;99.90;;;;;;4993063;28;20975;-72
2023/02/12 09:23:08;;;;;;;56.60;35.20;;;7.40;99.90;;;;;;4993656;28;20978;-71
2023/02/12 09:25:37;;;;;;;51.87;35.80;;;7.50;99.90;;;;;;4975844;28;20502;-72
2023/02/12 09:28:03;;;;;;;49.80;32.33;;;7.50;99.90;;;;;;4993518;28;20428;-71
2023/02/12 09:30:29;;;;;;;52.90;32.90;;;7.60;99.90;;;;;;4992815;28;20587;-71
2023/02/12 09:32:55;;;;;;;49.83;32.70;;;7.60;99.90;;;;;;4993504;28;20209;-71
2023/02/12 09:35:21;;;;;;;50.93;32.80;;;7.60;99.90;;;;;;4975328;28;20225;-71
2023/02/12 09:37:46;;;;;;;59.77;34.67;;;7.70;99.90;;;;;;4995122;28;20437;-71
2023/02/12 09:40:27;;;;;;;59.70;34.23;;;7.70;99.90;;;;;;4994001;28;20463;-72
2023/02/12 09:43:17;;;;;;;50.73;32.00;;;7.70;99.90;;;;;;4993313;28;20628;-71
2023/02/12 09:45:54;;;;;;;58.30;33.90;;;7.80;99.90;;;;;;5001220;28;20465;-70
2023/02/12 09:48:41;;;;;;;48.70;32.90;;;7.90;99.90;;;;;;5000986;28;20453;-70
2023/02/12 09:51:08;;;;;;;54.77;33.80;;;8.00;99.90;;;;;;4994070;28;21050;-71
2023/02/12 09:53:38;;;;;;;43.23;29.37;;;8.10;99.90;;;;;;5001184;28;20560;-72
2023/02/12 09:56:19;;;;;;;42.80;28.70;;;8.20;99.90;;;;;;4993536;28;20468;-73
2023/02/12 09:58:55;;;;;;;49.97;32.07;;;8.30;99.90;;;;;;4993151;28;20493;-73
2023/02/12 10:01:21;;;;;;;52.47;30.93;;;8.40;99.90;;;;;;4974746;28;20559;-73
2023/02/12 10:03:49;;;;;;;40.97;30.07;;;8.50;99.90;;;;;;4993067;28;20970;-73
2023/02/12 10:06:19;;;;;;;49.60;31.07;;;8.40;99.90;;;;;;4994442;28;20527;-72
2023/02/12 10:08:53;;;;;;;51.03;30.37;;;8.50;99.90;;;;;;4992552;28;20911;-73
2023/02/12 10:11:27;;;;;;;42.67;29.00;;;8.60;99.90;;;;;;4991792;28;20531;-72
2023/02/12 10:14:33;;;;;;;45.27;31.00;;;8.70;99.90;;;;;;4992726;28;20473;-70
2023/02/12 10:17:31;;;;;;;40.83;27.47;;;8.90;99.90;;;;;;4992752;28;20511;-72
2023/02/12 10:20:23;;;;;;;40.83;26.30;;;9.00;99.90;;;;;;4999188;28;20495;-73
2023/02/12 10:23:19;;;;;;;36.87;24.37;;;9.00;99.90;;;;;;4992269;28;20545;-72
2023/02/12 10:25:49;;;;;;;39.57;25.20;;;9.20;99.90;;;;;;4986074;28;20463;-72
2023/02/12 10:28:30;;;;;;;37.63;23.90;;;9.20;99.90;;;;;;4994932;28;20458;-72
2023/02/12 10:31:22;;;;;;;30.40;21.10;;;9.20;99.90;;;;;;4991994;28;20480;-73
2023/02/12 10:33:49;;;;;;;32.70;20.37;;;9.20;99.90;;;;;;4996969;28;20469;-73
2023/02/12 10:36:27;;;;;;;34.00;19.90;;;9.20;99.90;;;;;;4993928;28;21007;-72
2023/02/12 10:39:01;;;;;;;31.13;20.40;;;9.20;99.90;;;;;;5001193;28;20465;-75
2023/02/12 10:41:28;;;;;;;29.37;19.17;;;9.20;99.90;;;;;;4993706;28;20466;-74
2023/02/12 10:43:54;;;;;;;37.50;20.63;;;9.20;99.90;;;;;;5006411;28;20453;-74
2023/02/12 10:46:19;;;;;;;35.03;22.67;;;9.10;99.90;;;;;;5006314;28;20607;-74
2023/02/12 10:48:48;;;;;;;32.53;22.63;;;9.10;99.90;;;;;;4974583;28;20260;-74
2023/02/12 10:51:24;;;;;;;41.80;22.57;;;9.10;99.90;;;;;;4992173;28;20253;-74
2023/02/12 10:53:49;;;;;;;29.30;20.40;;;9.20;99.90;;;;;;4998583;28;20480;-73
2023/02/12 10:56:21;;;;;;;37.03;22.90;;;9.20;99.90;;;;;;4991100;28;20817;-73
2023/02/12 10:58:50;;;;;;;35.13;21.93;;;9.10;99.90;;;;;;5000307;28;20213;-74
2023/02/12 11:01:38;;;;;;;25.90;17.50;;;9.20;99.90;;;;;;4991605;28;20476;-74
2023/02/12 11:04:39;;;;;;;24.67;16.03;;;9.20;99.90;;;;;;4991816;28;20451;-74
2023/02/12 11:07:06;;;;;;;25.13;17.93;;;9.30;99.90;;;;;;4908230;29;20472;-74
2023/02/12 11:09:46;;;;;;;25.40;17.17;;;9.30;99.90;;;;;;4989630;28;20777;-72
2023/02/12 11:12:46;;;;;;;19.63;12.77;;;9.30;99.90;;;;;;4991748;28;20479;-74
2023/02/12 11:15:18;;;;;;;22.43;11.30;;;9.20;99.90;;;;;;4992080;28;20530;-74
2023/02/12 11:17:59;;;;;;;11.63;9.30;;;9.20;99.90;;;;;;4991371;28;20967;-72
2023/02/12 11:20:32;;;;;;;16.53;9.23;;;9.20;99.90;;;;;;5007533;28;20490;-73
2023/02/12 11:23:00;;;;;;;17.50;10.50;;;9.30;99.90;;;;;;4999373;28;20464;-74
2023/02/12 11:25:29;;;;;;;13.13;8.40;;;9.20;99.90;;;;;;4990726;28;20504;-73
2023/02/12 11:28:09;;;;;;;12.77;9.00;;;9.20;99.90;;;;;;4991207;28;20834;-72
2023/02/12 11:30:35;;;;;;;12.33;9.43;;;9.20;99.90;;;;;;4999308;28;20856;-74
2023/02/12 11:33:31;;;;;;;10.53;7.80;;;9.20;99.90;;;;;;4973475;28;20488;-74
2023/02/12 11:36:12;;;;;;;7.30;6.13;;;9.30;99.90;;;;;;4988464;28;20490;-74
2023/02/12 11:38:53;;;;;;;9.93;7.40;;;9.30;99.90;;;;;;4991431;28;20470;-74
2023/02/12 11:41:40;;;;;;;12.20;8.20;;;9.20;99.90;;;;;;4990630;28;20495;-74
2023/02/12 11:44:19;;;;;;;11.23;7.63;;;9.30;99.90;;;;;;4991375;28;20503;-74
2023/02/12 11:46:51;;;;;;;12.80;8.77;;;9.30;99.90;;;;;;4990729;28;20461;-74
2023/02/12 11:49:24;;;;;;;11.73;7.97;;;9.30;99.90;;;;;;4989841;28;20461;-73
2023/02/12 11:51:50;;;;;;;11.10;7.70;;;9.40;99.90;;;;;;4991194;28;20812;-74
2023/02/12 11:54:23;;;;;;;11.80;7.93;;;9.50;99.90;;;;;;4998712;28;20497;-72
2023/02/12 11:56:49;;;;;;;11.00;7.90;;;9.60;99.90;;;;;;4990219;28;20535;-74
2023/02/12 11:59:38;;;;;;;10.53;7.10;;;9.80;99.90;;;;;;4973642;28;20538;-74
2023/02/12 12:02:24;;;;;;;11.30;6.80;;;9.70;99.90;;;;;;4990889;28;20485;-74
2023/02/12 12:04:53;;;;;;;9.87;6.43;;;9.50;99.90;;;;;;4991046;28;20899;-74
2023/02/12 12:07:24;;;;;;;8.60;6.53;;;9.50;99.90;;;;;;4998728;28;20461;-73
2023/02/12 12:10:16;;;;;;;8.47;6.13;;;9.50;99.90;;;;;;4990182;28;20878;-73
2023/02/12 12:12:48;;;;;;;7.90;6.23;;;9.50;99.90;;;;;;4998675;28;21044;-73
2023/02/12 12:21:18;;;;;;;13.60;7.20;;;9.80;99.90;;;;;;4991133;28;20524;-73
2023/02/12 12:23:54;;;;;;;10.17;7.33;;;9.80;99.90;;;;;;4973251;28;20476;-73
2023/02/12 12:26:26;;;;;;;8.13;6.97;;;9.70;99.90;;;;;;4972519;28;20467;-72
2023/02/12 12:29:00;;;;;;;11.70;7.87;;;9.70;99.90;;;;;;4995231;28;20462;-73
2023/02/12 12:31:36;;;;;;;9.30;7.20;;;9.80;99.90;;;;;;4992734;28;20985;-73
2023/02/12 12:34:09;;;;;;;13.43;7.43;;;9.90;99.90;;;;;;4993148;28;20507;-73
2023/02/12 12:36:55;;;;;;;8.27;6.50;;;9.90;99.90;;;;;;5005748;28;20454;-73
2023/02/12 12:39:50;;;;;;;8.87;6.90;;;10.10;99.90;;;;;;4993972;28;20569;-73
2023/02/12 12:42:54;;;;;;;9.33;7.43;;;10.10;99.90;;;;;;4994413;28;20454;-72
2023/02/12 12:45:56;;;;;;;8.70;6.40;;;10.20;99.90;;;;;;4994239;28;20527;-73
2023/02/12 12:48:53;;;;;;;10.23;7.27;;;10.40;99.90;;;;;;4995695;28;20865;-74
2023/02/12 12:51:57;;;;;;;9.60;6.40;;;10.40;99.90;;;;;;4994240;28;20480;-72
2023/02/12 12:54:54;;;;;;;14.13;7.10;;;10.40;99.90;;;;;;5005137;28;21090;-73
2023/02/12 12:57:32;;;;;;;10.03;6.00;;;10.50;99.90;;;;;;4992709;28;20454;-72
2023/02/12 13:00:09;;;;;;;7.60;6.57;;;10.70;99.90;;;;;;4993550;28;20519;-73
2023/02/12 13:02:56;;;;;;;9.03;6.67;;;10.90;99.90;;;;;;4993267;28;20833;-74
2023/02/12 13:05:56;;;;;;;10.83;8.80;;;11.10;99.90;;;;;;4994253;28;20998;-74
2023/02/12 13:08:36;;;;;;;9.53;6.97;;;11.20;99.90;;;;;;4999526;28;20819;-73
2023/02/12 13:11:13;;;;;;;6.27;5.63;;;11.30;99.90;;;;;;4999404;28;20462;-73
2023/02/12 13:13:45;;;;;;;7.57;6.20;;;11.20;99.90;;;;;;4993778;28;20851;-73
2023/02/12 13:16:38;;;;;;;9.33;5.87;;;11.00;99.90;;;;;;4994069;28;20423;-73
2023/02/12 13:19:38;;;;;;;9.17;6.23;;;10.90;99.90;;;;;;4994307;28;20589;-72
2023/02/12 13:22:16;;;;;;;8.83;6.07;;;11.00;99.90;;;;;;4961462;28;20442;-73
2023/02/12 13:25:20;;;;;;;8.37;5.90;;;11.20;99.90;;;;;;4994290;28;20429;-73
2023/02/12 13:27:47;;;;;;;7.70;5.70;;;11.10;99.90;;;;;;4983757;28;20454;-73
2023/02/12 13:30:13;;;;;;;10.03;5.70;;;11.20;99.90;;;;;;4994690;28;20505;-72
2023/02/12 13:32:46;;;;;;;8.67;5.67;;;11.00;99.90;;;;;;4994080;28;20998;-74
2023/02/12 13:35:19;;;;;;;6.27;5.23;;;10.60;99.90;;;;;;4994404;28;20234;-73
2023/02/12 13:37:48;;;;;;;8.70;5.70;;;10.50;99.90;;;;;;5002082;28;20920;-73
2023/02/12 13:40:18;;;;;;;7.90;5.93;;;10.50;99.90;;;;;;4994407;28;20452;-72
2023/02/12 13:42:57;;;;;;;7.43;5.87;;;10.30;99.90;;;;;;4994015;28;20458;-73
2023/02/12 13:45:28;;;;;;;7.80;5.67;;;10.30;99.90;;;;;;4992906;28;20429;-72
2023/02/12 13:48:34;;;;;;;8.03;6.37;;;10.30;99.90;;;;;;5005822;28;20794;-73
2023/02/12 13:51:36;;;;;;;10.17;6.40;;;10.30;99.90;;;;;;4994171;28;20545;-74
2023/02/12 13:54:14;;;;;;;8.83;6.03;;;10.20;99.90;;;;;;5002435;28;20953;-72
2023/02/12 13:56:47;;;;;;;15.00;8.60;;;10.00;99.90;;;;;;4996302;28;20467;-72
2023/02/12 13:59:31;;;;;;;12.70;7.60;;;10.00;99.90;;;;;;5007148;28;20491;-72
2023/02/12 14:02:27;;;;;;;16.90;10.67;;;10.10;99.90;;;;;;4993866;28;20445;-73
2023/02/12 14:04:52;;;;;;;7.67;5.50;;;10.10;99.90;;;;;;5001785;28;20426;-73
2023/02/12 14:07:20;;;;;;;9.90;5.80;;;10.10;99.90;;;;;;4993809;28;21016;-72
2023/02/12 14:09:48;;;;;;;5.57;4.67;;;10.10;99.90;;;;;;4993665;28;20232;-73
2023/02/12 14:12:30;;;;;;;8.70;5.17;;;10.20;99.90;;;;;;5000521;28;20437;-73
2023/02/12 14:15:08;;;;;;;5.07;4.00;;;10.00;99.90;;;;;;5000710;28;20829;-73
2023/02/12 14:17:33;;;;;;;6.60;4.60;;;10.00;99.90;;;;;;5001476;28;20476;-74
2023/02/12 14:20:25;;;;;;;9.13;4.80;;;10.00;99.90;;;;;;4993683;28;20426;-73
2023/02/12 14:23:02;;;;;;;8.07;5.67;;;9.90;99.90;;;;;;5001518;28;20183;-73
2023/02/12 14:25:35;;;;;;;8.47;4.00;;;9.90;99.90;;;;;;4993313;28;20429;-74
2023/02/12 14:28:26;;;;;;;5.00;3.73;;;10.00;99.90;;;;;;4993434;28;20521;-73
2023/02/12 14:31:16;;;;;;;4.07;3.40;;;10.00;99.90;;;;;;4993153;28;20453;-74
2023/02/12 14:33:42;;;;;;;5.50;3.77;;;10.00;99.90;;;;;;5009396;28;20562;-73
2023/02/12 14:36:15;;;;;;;3.90;3.23;;;10.00;99.90;;;;;;5007078;28;20422;-73
2023/02/12 14:38:41;;;;;;;5.40;2.90;;;10.00;99.90;;;;;;4994481;28;20214;-74
2023/02/12 14:41:33;;;;;;;3.10;2.87;;;10.00;99.90;;;;;;5007047;28;20962;-73